createdAt,value
2019-05-14T00:01:46.991Z,9.00
2019-05-14T00:04:15.535Z,9.00
2019-05-14T00:06:43.963Z,9.00
2019-05-14T00:09:12.424Z,8.90
2019-05-14T00:11:42.139Z,8.90
2019-05-14T00:14:11.644Z,8.90
2019-05-14T00:16:42.450Z,8.90
2019-05-14T00:19:11.334Z,8.90
2019-05-14T00:21:42.094Z,8.90
2019-05-14T00:24:11.342Z,8.90
2019-05-14T00:26:42.296Z,8.90
2019-05-14T00:29:11.453Z,8.80
2019-05-14T00:31:42.458Z,8.80
2019-05-14T00:34:11.150Z,8.80
2019-05-14T00:36:41.734Z,8.80
2019-05-14T00:39:11.227Z,8.70
2019-05-14T00:41:41.893Z,8.70
2019-05-14T00:44:10.027Z,8.70
2019-05-14T00:46:38.490Z,8.70
2019-05-14T00:49:06.987Z,8.70
2019-05-14T00:51:35.519Z,8.60
2019-05-14T00:54:04.028Z,8.60
2019-05-14T00:56:32.460Z,8.60
2019-05-14T00:59:01.418Z,8.60
2019-05-14T01:01:31.803Z,8.50
2019-05-14T01:04:01.250Z,8.50
2019-05-14T01:06:31.504Z,8.50
2019-05-14T01:09:01.293Z,8.40
2019-05-14T01:11:31.462Z,8.30
2019-05-14T01:14:01.738Z,8.30
2019-05-14T01:16:31.799Z,8.30
2019-05-14T01:19:02.094Z,8.30
2019-05-14T01:21:31.186Z,8.20
2019-05-14T01:24:01.865Z,8.20
2019-05-14T01:26:31.107Z,8.20
2019-05-14T01:29:01.412Z,8.10
2019-05-14T01:31:31.449Z,8.10
2019-05-14T01:34:02.118Z,8.10
2019-05-14T01:36:32.031Z,8.10
2019-05-14T01:39:01.782Z,8.10
2019-05-14T01:41:31.697Z,8.00
2019-05-14T01:44:01.733Z,8.00
2019-05-14T01:46:31.649Z,8.00
2019-05-14T01:49:01.543Z,7.90
2019-05-14T01:51:31.561Z,7.90
2019-05-14T01:54:01.411Z,7.80
2019-05-14T01:56:31.904Z,7.80
2019-05-14T01:59:01.701Z,7.70
2019-05-14T02:01:31.560Z,7.60
2019-05-14T02:04:02.234Z,7.50
2019-05-14T02:06:31.815Z,7.40
2019-05-14T02:09:02.048Z,7.40
2019-05-14T02:11:32.018Z,7.40
2019-05-14T02:14:02.443Z,7.40
2019-05-14T02:16:31.522Z,7.40
2019-05-14T02:19:01.368Z,7.50
2019-05-14T02:21:31.738Z,7.40
2019-05-14T02:24:02.152Z,7.30
2019-05-14T02:26:31.561Z,7.20
2019-05-14T02:29:01.984Z,7.20
2019-05-14T02:31:30.709Z,7.10
2019-05-14T02:33:59.335Z,7.10
2019-05-14T02:36:30.851Z,7.10
2019-05-14T02:39:00.483Z,7.00
2019-05-14T02:41:29.939Z,7.00
2019-05-14T02:43:59.372Z,7.00
2019-05-14T02:46:29.563Z,6.90
2019-05-14T02:48:59.524Z,6.80
2019-05-14T02:51:29.965Z,6.90
2019-05-14T02:53:59.250Z,6.90
2019-05-14T02:56:29.632Z,6.90
2019-05-14T02:59:00.434Z,6.90
2019-05-14T03:01:30.124Z,6.80
2019-05-14T03:03:59.866Z,6.80
2019-05-14T03:06:29.272Z,6.80
2019-05-14T03:08:59.987Z,6.70
2019-05-14T03:11:29.654Z,6.60
2019-05-14T03:13:59.824Z,6.60
2019-05-14T03:16:32.426Z,6.60
2019-05-14T03:18:59.691Z,6.60
2019-05-14T03:21:30.384Z,6.60
2019-05-14T03:24:00.794Z,6.50
2019-05-14T03:26:29.712Z,6.60
2019-05-14T03:29:00.049Z,6.50
2019-05-14T03:31:33.049Z,6.50
2019-05-14T03:34:02.961Z,6.50
2019-05-14T03:36:34.734Z,6.50
2019-05-14T03:38:59.585Z,6.50
2019-05-14T03:41:30.630Z,6.40
2019-05-14T03:44:00.031Z,6.30
2019-05-14T03:46:44.200Z,6.30
2019-05-14T03:49:00.082Z,6.30
2019-05-14T03:51:29.741Z,6.30
2019-05-14T03:54:06.513Z,6.30
2019-05-14T03:56:29.921Z,6.30
2019-05-14T03:58:59.928Z,6.30
2019-05-14T04:01:29.828Z,6.30
2019-05-14T04:03:59.434Z,6.30
2019-05-14T04:06:30.389Z,6.30
2019-05-14T04:09:00.875Z,6.30
2019-05-14T04:11:31.297Z,6.40
2019-05-14T04:14:03.229Z,6.40
2019-05-14T04:16:33.974Z,6.40
2019-05-14T04:19:02.874Z,6.50
2019-05-14T04:21:32.632Z,6.40
2019-05-14T04:24:03.604Z,6.50
2019-05-14T04:26:53.371Z,6.50
2019-05-14T04:29:09.876Z,6.60
2019-05-14T04:31:39.807Z,6.60
2019-05-14T04:34:10.751Z,6.60
2019-05-14T04:36:39.349Z,6.60
2019-05-14T04:39:09.545Z,6.70
2019-05-14T04:41:39.349Z,6.70
2019-05-14T04:44:09.746Z,6.70
2019-05-14T04:46:39.499Z,6.80
2019-05-14T04:49:09.587Z,6.80
2019-05-14T04:51:39.618Z,6.80
2019-05-14T04:54:09.683Z,6.80
2019-05-14T04:56:39.792Z,6.80
2019-05-14T04:59:10.340Z,6.80
2019-05-14T05:01:40.117Z,6.90
2019-05-14T05:04:09.658Z,7.00
2019-05-14T05:06:39.647Z,7.00
2019-05-14T05:09:09.591Z,7.00
2019-05-14T05:11:39.490Z,7.00
2019-05-14T05:14:09.011Z,7.10
2019-05-14T05:16:39.108Z,7.10
2019-05-14T05:19:10.371Z,7.20
2019-05-14T05:21:38.898Z,7.20
2019-05-14T05:24:09.231Z,7.30
2019-05-14T05:26:39.200Z,7.40
2019-05-14T05:29:10.392Z,7.50
2019-05-14T05:31:38.277Z,7.60
2019-05-14T05:34:08.974Z,7.70
2019-05-14T05:36:38.007Z,7.80
2019-05-14T05:39:08.649Z,8.10
2019-05-14T05:41:38.519Z,8.80
2019-05-14T05:44:08.206Z,9.40
2019-05-14T05:46:38.868Z,9.90
2019-05-14T05:49:08.080Z,9.90
2019-05-14T05:51:39.051Z,10.00
2019-05-14T05:54:09.077Z,10.70
2019-05-14T05:56:38.766Z,11.00
2019-05-14T05:59:09.468Z,11.10
2019-05-14T06:01:44.855Z,11.50
2019-05-14T06:04:08.767Z,11.60
2019-05-14T06:06:39.031Z,12.50
2019-05-14T06:09:08.920Z,13.60
2019-05-14T06:11:38.075Z,13.60
2019-05-14T06:14:08.356Z,14.30
2019-05-14T06:16:38.508Z,14.00
2019-05-14T06:19:08.187Z,14.20
2019-05-14T06:21:39.602Z,13.90
2019-05-14T06:24:09.085Z,14.50
2019-05-14T06:26:38.441Z,14.20
2019-05-14T06:29:08.427Z,14.50
2019-05-14T06:31:38.733Z,13.60
2019-05-14T06:34:09.589Z,13.50
2019-05-14T06:36:39.560Z,13.10
2019-05-14T06:39:09.212Z,13.00
2019-05-14T06:41:42.620Z,13.10
2019-05-14T06:44:09.203Z,13.10
2019-05-14T06:46:39.105Z,12.30
2019-05-14T06:49:28.966Z,12.00
2019-05-14T06:51:59.269Z,11.80
2019-05-14T06:54:29.251Z,11.40
2019-05-14T06:56:58.309Z,11.30
2019-05-14T06:59:28.810Z,10.80
2019-05-14T07:01:57.997Z,10.50
2019-05-14T07:04:28.838Z,10.40
2019-05-14T07:06:59.135Z,10.40
2019-05-14T07:09:28.912Z,10.30
2019-05-14T07:11:58.458Z,10.60
2019-05-14T07:14:28.266Z,11.00
2019-05-14T07:16:58.796Z,11.40
2019-05-14T07:19:29.382Z,11.20
2019-05-14T07:21:58.425Z,11.20
2019-05-14T07:24:28.333Z,11.10
2019-05-14T07:26:58.715Z,11.00
2019-05-14T07:29:29.356Z,11.30
2019-05-14T07:31:58.307Z,11.60
2019-05-14T07:34:28.231Z,11.30
2019-05-14T07:36:58.653Z,11.50
2019-05-14T07:39:29.109Z,11.70
2019-05-14T07:41:59.061Z,11.90
2019-05-14T07:44:29.714Z,12.10
2019-05-14T07:46:58.971Z,12.10
2019-05-14T07:49:29.027Z,12.10
2019-05-14T07:51:58.705Z,12.20
2019-05-14T07:54:28.318Z,11.90
2019-05-14T07:56:58.841Z,12.00
2019-05-14T07:59:28.703Z,12.00
2019-05-14T08:01:58.579Z,12.00
2019-05-14T08:04:29.021Z,12.10
2019-05-14T08:06:58.302Z,12.10
2019-05-14T08:09:28.283Z,12.30
2019-05-14T08:11:58.750Z,12.50
2019-05-14T08:14:29.402Z,12.50
2019-05-14T08:16:59.510Z,12.00
2019-05-14T08:19:31.415Z,12.00
2019-05-14T08:21:58.678Z,12.10
2019-05-14T08:24:30.052Z,12.50
2019-05-14T08:26:57.969Z,12.80
2019-05-14T08:29:28.669Z,12.90
2019-05-14T08:31:58.205Z,13.00
2019-05-14T08:34:29.424Z,13.10
2019-05-14T08:36:58.856Z,13.20
2019-05-14T08:39:28.597Z,13.50
2019-05-14T08:42:03.112Z,13.70
2019-05-14T08:44:29.418Z,13.90
2019-05-14T08:47:09.602Z,13.60
2019-05-14T08:49:45.366Z,13.70
2019-05-14T08:52:08.779Z,13.60
2019-05-14T08:54:39.070Z,13.30
2019-05-14T08:57:09.773Z,13.40
2019-05-14T08:59:39.659Z,13.50
2019-05-14T09:02:10.715Z,13.60
2019-05-14T09:04:42.828Z,13.50
2019-05-14T09:07:09.530Z,13.60
2019-05-14T09:09:38.396Z,13.30
2019-05-14T09:12:12.158Z,13.50
2019-05-14T09:14:38.839Z,14.00
2019-05-14T09:17:09.713Z,14.20
2019-05-14T09:19:40.821Z,14.10
2019-05-14T09:22:09.815Z,14.50
2019-05-14T09:24:38.993Z,15.10
2019-05-14T09:27:08.437Z,15.10
2019-05-14T09:29:39.483Z,15.70
2019-05-14T09:32:09.561Z,16.00
2019-05-14T09:34:39.335Z,16.10
2019-05-14T09:37:08.606Z,16.00
2019-05-14T09:39:38.548Z,16.10
2019-05-14T09:42:08.161Z,16.00
2019-05-14T09:44:38.713Z,15.90
2019-05-14T09:47:08.599Z,15.90
2019-05-14T09:49:38.902Z,15.90
2019-05-14T09:52:09.099Z,15.20
2019-05-14T09:54:41.591Z,15.00
2019-05-14T09:57:08.435Z,14.70
2019-05-14T09:59:38.445Z,14.80
2019-05-14T10:02:09.223Z,14.70
2019-05-14T10:04:39.115Z,14.70
2019-05-14T10:07:08.872Z,14.70
2019-05-14T10:09:38.962Z,14.70
2019-05-14T10:12:08.909Z,14.90
2019-05-14T10:14:39.342Z,15.10
2019-05-14T10:17:07.860Z,14.90
2019-05-14T10:19:39.139Z,14.80
2019-05-14T10:22:08.340Z,14.70
2019-05-14T10:24:38.559Z,14.70
2019-05-14T10:27:09.046Z,15.60
2019-05-14T10:29:39.145Z,15.50
2019-05-14T10:32:08.706Z,16.20
2019-05-14T10:34:37.548Z,15.70
2019-05-14T10:37:08.381Z,15.50
2019-05-14T10:39:38.891Z,15.60
2019-05-14T10:42:08.694Z,15.60
2019-05-14T10:44:38.696Z,15.50
2019-05-14T10:47:09.186Z,15.80
2019-05-14T10:49:38.631Z,16.20
2019-05-14T10:52:08.214Z,16.50
2019-05-14T10:54:40.214Z,16.40
2019-05-14T10:57:09.658Z,16.50
2019-05-14T10:59:37.799Z,16.60
2019-05-14T11:04:34.675Z,17.10
2019-05-14T11:07:03.285Z,17.00
2019-05-14T11:09:31.717Z,17.10
2019-05-14T11:12:00.179Z,17.20
2019-05-14T11:14:31.707Z,17.30
2019-05-14T11:16:59.267Z,17.20
2019-05-14T11:19:28.214Z,17.10
2019-05-14T11:21:58.042Z,16.80
2019-05-14T11:24:29.365Z,16.30
2019-05-14T11:26:59.104Z,16.40
2019-05-14T11:29:29.497Z,16.10
2019-05-14T11:31:57.629Z,15.90
2019-05-14T11:34:28.551Z,15.80
2019-05-14T11:36:58.731Z,15.90
2019-05-14T11:39:28.640Z,16.00
2019-05-14T11:41:58.960Z,15.90
2019-05-14T11:44:28.583Z,15.70
2019-05-14T11:46:59.246Z,15.80
2019-05-14T11:49:27.152Z,16.20
2019-05-14T11:52:04.291Z,16.70
2019-05-14T11:54:25.900Z,17.00
2019-05-14T11:56:54.384Z,17.30
2019-05-14T11:59:22.973Z,16.90
2019-05-14T12:01:54.871Z,16.90
2019-05-14T12:04:21.588Z,16.70
2019-05-14T12:06:50.017Z,16.20
2019-05-14T12:09:18.922Z,15.90
2019-05-14T12:11:47.578Z,16.40
2019-05-14T12:14:16.020Z,16.40
2019-05-14T12:16:44.522Z,16.60
2019-05-14T12:19:13.009Z,16.70
2019-05-14T12:21:58.483Z,16.50
2019-05-14T12:24:13.994Z,16.60
2019-05-14T12:26:42.103Z,16.90
2019-05-14T12:29:10.548Z,16.90
2019-05-14T12:31:39.001Z,16.60
2019-05-14T12:34:07.488Z,16.40
2019-05-14T12:36:38.737Z,16.40
2019-05-14T12:39:09.587Z,16.30
2019-05-14T12:41:38.699Z,16.10
2019-05-14T12:44:09.269Z,16.10
2019-05-14T12:46:37.513Z,16.30
2019-05-14T12:49:06.025Z,16.90
2019-05-14T12:51:38.218Z,16.90
2019-05-14T12:54:04.828Z,17.10
2019-05-14T12:56:33.303Z,17.00
2019-05-14T12:59:01.737Z,17.00
2019-05-14T13:01:30.324Z,17.30
2019-05-14T13:03:59.321Z,17.40
2019-05-14T13:06:29.396Z,17.10
2019-05-14T13:08:58.645Z,16.90
2019-05-14T13:11:27.283Z,16.80
2019-05-14T13:13:58.328Z,16.60
2019-05-14T13:16:28.336Z,16.40
2019-05-14T13:18:56.315Z,16.50
2019-05-14T13:21:24.762Z,16.60
2019-05-14T13:23:53.179Z,16.90
2019-05-14T13:26:21.608Z,17.10
2019-05-14T13:28:51.047Z,17.10
2019-05-14T13:31:19.770Z,17.40
2019-05-14T13:33:48.929Z,17.40
2019-05-14T13:36:20.538Z,17.30
2019-05-14T13:38:49.099Z,17.30
2019-05-14T13:41:19.347Z,17.40
2019-05-14T13:43:50.474Z,17.50
2019-05-14T13:46:18.937Z,17.50
2019-05-14T13:48:49.834Z,17.30
2019-05-14T13:51:19.530Z,17.20
2019-05-14T13:53:49.929Z,17.20
2019-05-14T13:56:18.867Z,17.10
2019-05-14T13:58:48.967Z,17.20
2019-05-14T14:01:19.402Z,17.40
2019-05-14T14:04:02.591Z,17.50
2019-05-14T14:06:20.740Z,17.60
2019-05-14T14:08:48.904Z,17.70
2019-05-14T14:11:19.398Z,17.50
2019-05-14T14:13:48.945Z,17.40
2019-05-14T14:16:19.751Z,17.70
2019-05-14T14:18:50.023Z,17.90
2019-05-14T14:21:20.210Z,17.80
2019-05-14T14:23:50.857Z,17.80
2019-05-14T14:26:19.424Z,17.80
2019-05-14T14:28:49.277Z,17.80
2019-05-14T14:31:18.879Z,17.90
2019-05-14T14:33:48.675Z,17.70
2019-05-14T14:36:19.867Z,17.50
2019-05-14T14:38:49.574Z,17.50
2019-05-14T14:41:19.268Z,17.50
2019-05-14T14:43:53.234Z,17.30
2019-05-14T14:46:19.607Z,17.30
2019-05-14T14:48:49.445Z,17.30
2019-05-14T14:51:19.395Z,17.30
2019-05-14T14:53:58.974Z,17.20
2019-05-14T14:56:18.894Z,17.10
2019-05-14T14:58:49.291Z,17.10
2019-05-14T15:01:19.396Z,17.30
2019-05-14T15:03:49.771Z,17.20
2019-05-14T15:06:18.652Z,17.50
2019-05-14T15:08:49.797Z,17.50
2019-05-14T15:11:17.420Z,17.60
2019-05-14T15:13:48.093Z,17.50
2019-05-14T15:16:16.302Z,17.00
2019-05-14T15:18:44.977Z,17.10
2019-05-14T15:21:13.416Z,16.90
2019-05-14T15:23:45.148Z,17.10
2019-05-14T15:26:12.372Z,17.10
2019-05-14T15:28:40.846Z,17.00
2019-05-14T15:31:09.329Z,17.10
2019-05-14T15:33:37.891Z,17.20
2019-05-14T15:36:08.975Z,17.20
2019-05-14T15:38:39.306Z,17.30
2019-05-14T15:41:12.698Z,17.30
2019-05-14T15:43:39.523Z,17.10
2019-05-14T15:46:08.723Z,16.90
2019-05-14T15:48:39.404Z,17.00
2019-05-14T15:51:14.282Z,17.00
2019-05-14T15:53:38.733Z,17.10
2019-05-14T15:56:08.138Z,17.10
2019-05-14T15:58:38.971Z,17.10
2019-05-14T16:01:10.034Z,16.90
2019-05-14T16:03:41.323Z,16.60
2019-05-14T16:06:08.947Z,16.50
2019-05-14T16:08:40.191Z,16.50
2019-05-14T16:11:11.540Z,16.50
2019-05-14T16:13:39.828Z,16.60
2019-05-14T16:16:10.508Z,16.70
2019-05-14T16:18:38.696Z,16.50
2019-05-14T16:21:10.237Z,16.60
2019-05-14T16:23:38.798Z,16.50
2019-05-14T16:26:08.906Z,16.50
2019-05-14T16:28:39.389Z,16.60
2019-05-14T16:31:08.539Z,16.60
2019-05-14T16:33:40.349Z,16.70
2019-05-14T16:36:08.916Z,16.60
2019-05-14T16:38:39.503Z,16.60
2019-05-14T16:41:08.194Z,16.60
2019-05-14T16:43:39.487Z,16.40
2019-05-14T16:46:09.681Z,16.50
2019-05-14T16:48:39.409Z,16.40
2019-05-14T16:51:08.881Z,16.50
2019-05-14T16:53:38.059Z,16.50
2019-05-14T16:56:08.228Z,16.40
2019-05-14T16:58:38.711Z,16.40
2019-05-14T17:01:09.794Z,16.20
2019-05-14T17:03:39.771Z,16.30
2019-05-14T17:06:07.754Z,16.20
2019-05-14T17:08:36.199Z,16.30
2019-05-14T17:11:04.769Z,16.10
2019-05-14T17:16:01.352Z,16.20
2019-05-14T17:18:29.823Z,16.00
2019-05-14T17:20:59.452Z,16.00
2019-05-14T17:23:28.484Z,15.90
2019-05-14T17:25:58.004Z,15.90
2019-05-14T17:28:28.684Z,15.90
2019-05-14T17:30:56.792Z,15.90
2019-05-14T17:33:25.249Z,15.90
2019-05-14T17:35:53.884Z,15.80
2019-05-14T17:38:22.499Z,15.60
2019-05-14T17:40:51.058Z,15.60
2019-05-14T17:43:22.869Z,15.50
2019-05-14T17:45:49.800Z,15.40
2019-05-14T17:48:18.407Z,15.30
2019-05-14T17:53:18.312Z,15.20
2019-05-14T17:55:50.550Z,15.10
2019-05-14T17:58:18.872Z,15.10
2019-05-14T18:00:47.541Z,15.00
2019-05-14T18:03:18.278Z,15.00
2019-05-14T18:05:46.224Z,15.00
2019-05-14T18:08:14.736Z,15.00
2019-05-14T18:10:43.432Z,14.90
2019-05-14T18:13:12.115Z,15.00
2019-05-14T18:15:40.596Z,14.90
2019-05-14T18:18:09.475Z,14.90
2019-05-14T18:20:39.496Z,14.90
2019-05-14T18:25:38.849Z,14.80
2019-05-14T18:28:09.326Z,14.70
2019-05-14T18:30:38.627Z,14.70
2019-05-14T18:33:08.007Z,14.70
2019-05-14T18:35:43.776Z,14.70
2019-05-14T18:38:08.290Z,14.70
2019-05-14T18:40:37.098Z,14.60
2019-05-14T18:43:08.445Z,14.50
2019-05-14T18:45:36.151Z,14.50
2019-05-14T18:48:04.684Z,14.40
2019-05-14T18:50:33.225Z,14.40
2019-05-14T18:53:01.698Z,14.30
2019-05-14T18:55:30.225Z,14.20
2019-05-14T18:57:59.348Z,14.10
2019-05-14T19:00:29.426Z,14.10
2019-05-14T19:02:58.350Z,14.00
2019-05-14T19:05:29.213Z,13.90
2019-05-14T19:07:59.131Z,13.80
2019-05-14T19:10:28.047Z,13.80
2019-05-14T19:12:58.793Z,13.70
2019-05-14T19:15:26.959Z,13.60
2019-05-14T19:17:57.788Z,13.50
2019-05-14T19:20:25.646Z,13.40
2019-05-14T19:22:54.122Z,13.40
2019-05-14T19:25:22.712Z,13.30
2019-05-14T19:27:51.221Z,13.20
2019-05-14T19:30:19.733Z,13.10
2019-05-14T19:32:48.631Z,13.10
2019-05-14T19:35:19.195Z,13.00
2019-05-14T19:37:48.694Z,12.90
2019-05-14T19:40:18.974Z,12.80
2019-05-14T19:42:48.559Z,12.80
2019-05-14T19:45:18.289Z,12.70
2019-05-14T19:47:49.124Z,12.70
2019-05-14T19:50:18.774Z,12.60
2019-05-14T19:52:48.665Z,12.50
2019-05-14T19:55:18.918Z,12.50
2019-05-14T19:57:49.032Z,12.40
2019-05-14T20:00:25.571Z,12.30
2019-05-14T20:02:54.116Z,12.30
2019-05-14T20:05:22.641Z,12.30
2019-05-14T20:07:51.295Z,12.20
2019-05-14T20:10:19.802Z,12.10
2019-05-14T20:12:48.348Z,12.10
2019-05-14T20:15:16.947Z,12.00
2019-05-14T20:17:45.570Z,12.00
2019-05-14T20:20:14.328Z,11.90
2019-05-14T20:22:42.906Z,11.80
2019-05-14T20:25:11.690Z,11.70
2019-05-14T20:27:40.140Z,11.70
2019-05-14T20:30:12.316Z,11.60
2019-05-14T20:32:44.160Z,11.50
2019-05-14T20:35:11.399Z,11.50
2019-05-14T20:37:39.855Z,11.40
2019-05-14T20:40:09.050Z,11.40
2019-05-14T20:42:39.251Z,11.40
2019-05-14T20:45:08.665Z,11.30
2019-05-14T20:47:39.204Z,11.20
2019-05-14T20:50:09.061Z,11.20
2019-05-14T20:52:37.642Z,11.20
2019-05-14T20:55:09.559Z,11.20
2019-05-14T20:57:38.504Z,11.20
2019-05-14T21:00:11.370Z,11.10
2019-05-14T21:02:39.796Z,11.10
2019-05-14T21:05:13.527Z,11.00
2019-05-14T21:07:39.241Z,10.90
2019-05-14T21:10:08.509Z,10.80
2019-05-14T21:12:39.273Z,10.80
2019-05-14T21:15:09.158Z,10.70
2019-05-14T21:17:38.112Z,10.50
2019-05-14T21:20:09.084Z,10.50
2019-05-14T21:22:39.726Z,10.40
2019-05-14T21:25:11.284Z,10.30
2019-05-14T21:27:47.602Z,10.20
2019-05-14T21:30:09.340Z,10.20
2019-05-14T21:32:39.179Z,10.10
2019-05-14T21:35:08.273Z,10.00
2019-05-14T21:37:38.986Z,10.00
2019-05-14T21:40:09.186Z,10.00
2019-05-14T21:42:38.591Z,9.90
2019-05-14T21:45:09.850Z,9.90
2019-05-14T21:47:38.999Z,9.80
2019-05-14T21:50:09.173Z,9.80
2019-05-14T21:52:39.313Z,9.70
2019-05-14T21:55:08.825Z,9.60
2019-05-14T21:57:38.285Z,9.60
2019-05-14T22:00:23.285Z,9.50
2019-05-14T22:02:51.731Z,9.40
2019-05-14T22:05:20.240Z,9.40
2019-05-14T22:07:48.715Z,9.40
2019-05-14T22:10:19.074Z,9.30
2019-05-14T22:12:48.756Z,9.30
2019-05-14T22:15:18.387Z,9.20
2019-05-14T22:17:49.160Z,9.20
2019-05-14T22:20:19.222Z,9.30
2019-05-14T22:22:48.405Z,9.20
2019-05-14T22:25:19.058Z,9.20
2019-05-14T22:27:48.341Z,9.30
2019-05-14T22:30:18.348Z,9.30
2019-05-14T22:32:46.915Z,9.30
2019-05-14T22:35:15.398Z,9.30
2019-05-14T22:37:43.927Z,9.30
2019-05-14T22:40:12.674Z,9.30
2019-05-14T22:42:41.248Z,9.20
2019-05-14T22:45:10.192Z,9.20
2019-05-14T22:47:40.497Z,9.20
2019-05-14T22:50:09.551Z,9.10
2019-05-14T22:52:38.490Z,9.00
2019-05-14T22:55:07.951Z,9.00
2019-05-14T22:57:38.939Z,8.90
2019-05-14T23:00:08.713Z,8.80
2019-05-14T23:02:38.151Z,8.70
2019-05-14T23:05:10.993Z,8.60
2019-05-14T23:07:39.534Z,8.50
2019-05-14T23:10:08.940Z,8.50
2019-05-14T23:12:38.490Z,8.40
2019-05-14T23:15:07.659Z,8.40
2019-05-14T23:17:36.106Z,8.30
2019-05-14T23:20:08.880Z,8.30
2019-05-14T23:22:38.844Z,8.20
2019-05-14T23:25:09.166Z,8.20
2019-05-14T23:27:38.994Z,8.10
2019-05-14T23:30:08.739Z,8.10
2019-05-14T23:32:38.516Z,8.00
2019-05-14T23:35:07.797Z,8.00
2019-05-14T23:37:36.418Z,8.00
2019-05-14T23:40:08.503Z,8.00
2019-05-14T23:42:39.024Z,8.00
2019-05-14T23:45:08.166Z,8.00
2019-05-14T23:47:38.288Z,8.00
2019-05-14T23:50:08.159Z,8.10
2019-05-14T23:52:38.571Z,8.10
2019-05-14T23:55:08.571Z,8.10
2019-05-14T23:57:37.326Z,8.10
